Time;durP1;ratioP1;P1;durP2;ratioP2;P2;SDS_P1;SDS_P2;PMS_P1;PMS_P2;Temp;Humidity;BMP_temperature;BMP_pressure;BME280_temperature;BME280_humidity;BME280_pressure;Samples;Min_cycle;Max_cycle;Signal;HPM_P1;HPM_P2
2022/03/31 00:02:04;;;;;;;;;54.00;42.00;;;;;8.93;100.00;99670.47;4997574;28;45333;-81
2022/03/31 00:04:30;;;;;;;;;60.67;48.33;;;;;8.90;100.00;99673.38;4979420;28;45614;-81
2022/03/31 00:06:55;;;;;;;;;44.67;38.00;;;;;8.90;100.00;99676.03;4997541;28;45345;-81
2022/03/31 00:09:20;;;;;;;;;53.67;42.67;;;;;8.95;100.00;99673.88;4997353;28;45346;-79
2022/03/31 00:11:46;;;;;;;;;52.67;42.00;;;;;8.98;100.00;99678.91;4997689;28;44832;-81
2022/03/31 00:14:11;;;;;;;;;56.00;46.00;;;;;8.92;100.00;99684.69;4997167;28;45407;-81
2022/03/31 00:16:36;;;;;;;;;53.67;43.67;;;;;8.94;100.00;99672.16;4997529;28;44845;-80
2022/03/31 00:19:02;;;;;;;;;51.67;41.67;;;;;8.95;100.00;99671.22;5002127;28;45161;-83
2022/03/31 00:21:27;;;;;;;;;53.00;44.00;;;;;8.93;100.00;99686.38;5009823;28;44950;-83
2022/03/31 00:23:52;;;;;;;;;51.33;41.00;;;;;8.93;100.00;99683.72;5007864;28;45366;-83
2022/03/31 00:26:18;;;;;;;;;55.00;44.33;;;;;8.90;100.00;99660.16;5002429;28;44799;-83
2022/03/31 00:28:44;;;;;;;;;47.33;35.33;;;;;8.87;100.00;99673.63;4998858;28;44808;-83
2022/03/31 00:31:09;;;;;;;;;48.33;39.00;;;;;8.85;100.00;99680.84;4997974;28;45338;-83
2022/03/31 00:33:34;;;;;;;;;52.33;43.00;;;;;8.82;100.00;99661.69;4997710;28;45450;-82
2022/03/31 00:36:00;;;;;;;;;53.00;42.67;;;;;8.74;100.00;99657.81;4997538;28;45378;-84
2022/03/31 00:38:25;;;;;;;;;43.33;34.33;;;;;8.78;100.00;99650.50;4997671;28;44790;-84
2022/03/31 00:40:51;;;;;;;;;50.33;41.00;;;;;8.70;100.00;99656.38;4998304;28;44949;-83
2022/03/31 00:43:16;;;;;;;;;48.33;37.67;;;;;8.69;100.00;99653.84;4998175;28;45305;-83
2022/03/31 00:45:48;;;;;;;;;52.00;38.33;;;;;8.67;100.00;99646.03;4997744;28;44729;-84
2022/03/31 00:48:15;;;;;;;;;45.67;35.33;;;;;8.69;100.00;99644.09;5002282;28;45540;-82
2022/03/31 00:50:41;;;;;;;;;34.67;32.00;;;;;8.71;100.00;99644.00;5000666;28;45351;-83
2022/03/31 00:53:06;;;;;;;;;52.67;41.67;;;;;8.68;100.00;99638.91;4980811;28;47125;-84
2022/03/31 00:55:33;;;;;;;;;50.00;40.00;;;;;8.73;100.00;99634.13;5016333;28;44676;-83
2022/03/31 00:57:59;;;;;;;;;46.00;38.00;;;;;8.73;100.00;99644.69;5019439;28;44848;-83
2022/03/31 01:00:25;;;;;;;;;50.33;41.00;;;;;8.72;100.00;99633.28;5018106;28;44840;-82
2022/03/31 01:02:50;;;;;;;;;50.00;40.67;;;;;8.68;100.00;99639.75;4998570;28;46076;-81
2022/03/31 01:05:16;;;;;;;;;33.67;28.67;;;;;8.68;100.00;99623.88;5017511;28;45446;-82
2022/03/31 01:07:42;;;;;;;;;38.33;34.00;;;;;8.68;100.00;99628.31;5016685;28;44815;-83
2022/03/31 01:10:09;;;;;;;;;31.00;26.00;;;;;8.66;100.00;99627.63;5022059;28;45374;-83
2022/03/31 01:12:35;;;;;;;;;48.67;37.67;;;;;8.67;100.00;99613.41;5024498;28;45491;-82
2022/03/31 01:15:08;;;;;;;;;46.00;36.33;;;;;8.70;100.00;99629.91;5021492;28;44727;-81
2022/03/31 01:17:39;;;;;;;;;30.67;28.67;;;;;8.72;100.00;99614.72;5000445;28;44786;-82
2022/03/31 01:20:07;;;;;;;;;38.00;33.33;;;;;8.69;100.00;99620.25;5022006;28;44866;-83
2022/03/31 01:22:34;;;;;;;;;45.33;36.33;;;;;8.64;100.00;99619.78;5004224;28;45570;-80
2022/03/31 01:25:01;;;;;;;;;47.67;34.67;;;;;8.65;100.00;99616.16;5018004;28;45377;-80
2022/03/31 01:27:26;;;;;;;;;37.33;32.00;;;;;8.61;100.00;99605.94;5018250;28;45444;-81
2022/03/31 01:29:53;;;;;;;;;45.33;36.33;;;;;8.61;100.00;99603.31;5018013;28;44827;-80
2022/03/31 01:32:19;;;;;;;;;45.00;34.33;;;;;8.60;100.00;99601.59;5016047;28;45432;-81
2022/03/31 01:34:46;;;;;;;;;49.33;36.00;;;;;8.58;100.00;99609.66;5015576;28;45337;-80
2022/03/31 01:37:13;;;;;;;;;41.00;35.33;;;;;8.54;100.00;99597.63;5015086;28;44774;-81
2022/03/31 01:39:39;;;;;;;;;47.00;38.67;;;;;8.48;100.00;99606.03;5015090;28;45427;-81
2022/03/31 01:42:05;;;;;;;;;50.33;39.33;;;;;8.46;100.00;99605.28;5015478;28;45389;-80
2022/03/31 01:44:31;;;;;;;;;52.33;41.67;;;;;8.40;100.00;99598.66;5015170;28;44708;-80
2022/03/31 01:46:57;;;;;;;;;48.33;38.67;;;;;8.40;100.00;99600.47;5015697;28;45297;-79
2022/03/31 01:49:22;;;;;;;;;48.67;42.00;;;;;8.32;100.00;99606.34;5017572;28;44934;-80
2022/03/31 01:51:47;;;;;;;;;56.33;43.67;;;;;8.23;100.00;99588.50;5022909;28;45075;-80
2022/03/31 01:54:13;;;;;;;;;48.00;39.00;;;;;8.28;100.00;99590.81;5013474;28;45494;-80
2022/03/31 01:56:42;;;;;;;;;52.00;39.00;;;;;8.28;100.00;99590.81;4996988;28;44960;-80
2022/03/31 01:59:08;;;;;;;;;44.33;38.00;;;;;8.20;100.00;99583.44;4995704;28;44846;-81
2022/03/31 02:01:33;;;;;;;;;46.33;38.00;;;;;8.10;100.00;99593.88;4998803;28;45170;-80
2022/03/31 02:03:59;;;;;;;;;52.67;42.67;;;;;8.12;100.00;99583.16;5001227;28;44783;-80
2022/03/31 02:06:24;;;;;;;;;52.33;40.67;;;;;8.10;100.00;99587.72;4999464;28;44768;-80
2022/03/31 02:08:49;;;;;;;;;49.33;39.33;;;;;8.09;100.00;99570.19;4977891;28;45546;-79
2022/03/31 02:11:15;;;;;;;;;58.67;40.33;;;;;8.10;100.00;99578.00;4997085;28;45390;-80
2022/03/31 02:13:40;;;;;;;;;49.00;39.33;;;;;8.05;100.00;99580.16;4995572;28;45393;-80
2022/03/31 02:16:06;;;;;;;;;56.67;44.33;;;;;7.99;100.00;99581.44;4998444;28;44992;-80
2022/03/31 02:18:31;;;;;;;;;54.00;41.00;;;;;7.98;100.00;99578.94;4998989;28;45334;-80
2022/03/31 02:20:57;;;;;;;;;50.00;38.00;;;;;7.98;100.00;99578.94;4999592;28;45209;-79
2022/03/31 02:23:22;;;;;;;;;54.33;43.33;;;;;7.89;100.00;99577.81;5001440;28;44821;-79
2022/03/31 02:25:48;;;;;;;;;58.67;43.00;;;;;7.86;100.00;99591.25;5001484;28;45390;-80
2022/03/31 02:28:13;;;;;;;;;54.67;44.00;;;;;7.87;100.00;99578.88;5000378;28;45439;-79
2022/03/31 02:30:39;;;;;;;;;52.00;43.33;;;;;7.84;100.00;99587.06;5000335;28;45256;-79
2022/03/31 02:33:05;;;;;;;;;59.33;46.00;;;;;7.81;100.00;99593.38;4999369;28;44812;-80
2022/03/31 02:35:31;;;;;;;;;53.33;45.00;;;;;7.71;100.00;99587.09;4980942;28;45297;-80
2022/03/31 02:37:56;;;;;;;;;61.33;49.67;;;;;7.67;100.00;99593.56;4999093;28;44748;-79
2022/03/31 02:40:22;;;;;;;;;70.33;53.33;;;;;7.64;100.00;99588.50;4980844;28;46206;-79
2022/03/31 02:42:47;;;;;;;;;62.33;48.67;;;;;7.58;100.00;99599.50;4999129;28;45314;-79
2022/03/31 02:45:14;;;;;;;;;67.67;52.00;;;;;7.58;100.00;99596.88;4999871;28;45665;-79
2022/03/31 02:47:40;;;;;;;;;66.33;53.67;;;;;7.53;100.00;99593.72;4980842;28;45337;-79
2022/03/31 02:50:07;;;;;;;;;53.33;43.00;;;;;7.52;100.00;99597.31;4999275;28;45322;-81
2022/03/31 02:55:28;;;;;;;;;63.00;50.67;;;;;7.48;100.00;99597.53;5006245;28;44620;-79
2022/03/31 02:58:00;;;;;;;;;58.33;49.00;;;;;7.48;100.00;99600.19;5002426;28;45542;-79
2022/03/31 03:00:26;;;;;;;;;63.00;50.33;;;;;7.44;100.00;99601.34;4997797;28;45409;-79
2022/03/31 03:02:53;;;;;;;;;68.67;53.67;;;;;7.42;100.00;99592.72;4998052;28;44772;-80
2022/03/31 03:05:19;;;;;;;;;65.67;52.00;;;;;7.40;100.00;99594.63;4998874;28;45235;-79
2022/03/31 03:07:45;;;;;;;;;69.00;53.33;;;;;7.36;100.00;99593.16;4996925;28;44851;-79
2022/03/31 03:10:10;;;;;;;;;59.33;48.67;;;;;7.33;100.00;99589.88;4998400;28;46004;-80
2022/03/31 03:12:35;;;;;;;;;57.33;46.67;;;;;7.28;100.00;99584.94;4998924;28;44815;-78
2022/03/31 03:15:02;;;;;;;;;71.33;53.00;;;;;7.29;100.00;99581.31;4998951;28;45442;-80
2022/03/31 03:17:27;;;;;;;;;68.00;54.00;;;;;7.30;100.00;99574.25;4998309;28;45336;-79
2022/03/31 03:19:53;;;;;;;;;67.00;49.00;;;;;7.30;100.00;99572.47;4998244;28;45342;-79
2022/03/31 03:22:18;;;;;;;;;69.00;51.33;;;;;7.33;100.00;99571.38;5000434;28;44755;-80
2022/03/31 03:24:43;;;;;;;;;69.00;51.00;;;;;7.27;100.00;99574.47;4998843;28;45223;-79
2022/03/31 03:27:09;;;;;;;;;65.67;51.00;;;;;7.27;100.00;99570.03;4997906;28;45381;-78
2022/03/31 03:29:34;;;;;;;;;64.33;49.67;;;;;7.23;100.00;99565.94;4997745;28;44972;-78
2022/03/31 03:31:59;;;;;;;;;72.67;55.00;;;;;7.24;100.00;99551.75;4997581;28;45187;-79
2022/03/31 03:34:25;;;;;;;;;64.33;51.00;;;;;7.26;100.00;99560.44;4997800;28;45910;-78
2022/03/31 03:36:50;;;;;;;;;61.67;46.33;;;;;7.28;100.00;99561.16;4998641;28;45314;-79
2022/03/31 03:39:16;;;;;;;;;63.33;48.67;;;;;7.30;100.00;99558.41;4997993;28;46098;-79
2022/03/31 03:41:42;;;;;;;;;67.33;54.00;;;;;7.29;100.00;99548.78;4980222;28;44761;-79
2022/03/31 03:44:07;;;;;;;;;62.67;48.33;;;;;7.27;100.00;99554.19;4998246;28;45062;-80
2022/03/31 03:46:34;;;;;;;;;69.67;53.33;;;;;7.26;100.00;99552.50;5001014;28;44891;-79
2022/03/31 03:49:00;;;;;;;;;66.67;52.00;;;;;7.28;100.00;99542.66;5001595;28;45311;-79
2022/03/31 03:51:26;;;;;;;;;62.00;46.33;;;;;7.21;100.00;99547.56;4998237;28;44774;-79
2022/03/31 03:53:52;;;;;;;;;66.00;50.33;;;;;7.21;100.00;99557.28;5002373;28;45467;-80
2022/03/31 03:56:18;;;;;;;;;58.00;47.33;;;;;7.20;100.00;99551.16;5016888;28;44905;-79
2022/03/31 03:58:43;;;;;;;;;68.33;52.67;;;;;7.20;100.00;99560.84;5017409;28;45046;-81
2022/03/31 04:01:09;;;;;;;;;73.50;54.00;;;;;7.19;100.00;99561.81;5017269;28;45483;-80
2022/03/31 04:03:35;;;;;;;;;70.00;56.00;;;;;7.15;100.00;99569.09;5017732;28;45233;-79
2022/03/31 04:06:00;;;;;;;;;66.67;51.33;;;;;7.12;100.00;99568.50;5017748;28;44787;-79
2022/03/31 04:08:26;;;;;;;;;65.00;50.00;;;;;7.12;100.00;99566.69;5016758;28;45294;-79
2022/03/31 04:10:51;;;;;;;;;73.00;54.00;;;;;7.03;100.00;99558.59;5017044;28;45369;-80
2022/03/31 04:13:16;;;;;;;;;69.00;54.67;;;;;7.01;100.00;99563.13;5017355;28;45497;-79
2022/03/31 04:15:42;;;;;;;;;62.00;48.33;;;;;7.06;100.00;99561.00;5016759;28;45297;-80
2022/03/31 04:18:08;;;;;;;;;69.67;52.33;;;;;7.03;100.00;99559.44;5017032;28;45523;-79
2022/03/31 04:20:34;;;;;;;;;59.00;48.67;;;;;7.05;100.00;99556.69;5017371;28;45457;-79
2022/03/31 04:22:59;;;;;;;;;56.00;45.33;;;;;7.01;100.00;99563.13;5018821;28;44816;-79
2022/03/31 04:25:25;;;;;;;;;67.00;51.33;;;;;6.99;100.00;99559.75;5018431;28;45342;-78
2022/03/31 04:27:50;;;;;;;;;61.00;46.33;;;;;6.98;100.00;99552.78;4999193;28;45475;-79
2022/03/31 04:30:20;;;;;;;;;53.67;46.00;;;;;6.94;100.00;99552.16;5018124;28;45020;-81
2022/03/31 04:32:47;;;;;;;;;66.00;51.33;;;;;6.90;100.00;99555.97;5017362;28;45425;-79
2022/03/31 04:35:13;;;;;;;;;58.67;43.33;;;;;6.88;100.00;99564.00;4982620;28;44851;-78
2022/03/31 04:37:38;;;;;;;;;48.00;41.67;;;;;6.86;100.00;99571.19;4976849;28;45443;-80
2022/03/31 04:40:05;;;;;;;;;62.00;50.33;;;;;6.83;100.00;99565.28;4980689;28;44727;-80
2022/03/31 04:42:31;;;;;;;;;65.00;50.33;;;;;6.82;100.00;99567.09;4978586;28;45008;-80
2022/03/31 04:44:57;;;;;;;;;69.33;52.67;;;;;6.80;100.00;99555.78;4977741;28;45367;-80
2022/03/31 04:47:22;;;;;;;;;41.33;33.00;;;;;6.80;100.00;99568.97;4979974;28;45967;-81
2022/03/31 04:49:48;;;;;;;;;63.67;51.67;;;;;6.74;100.00;99576.50;4977773;28;44909;-80
2022/03/31 04:52:14;;;;;;;;;55.00;44.67;;;;;6.70;100.00;99567.94;4980876;28;45354;-79
2022/03/31 04:54:43;;;;;;;;;53.67;45.00;;;;;6.67;100.00;99569.00;4970267;28;44887;-80
2022/03/31 04:57:13;;;;;;;;;75.33;57.67;;;;;6.64;100.00;99569.22;4958150;28;45214;-80
2022/03/31 04:59:39;;;;;;;;;61.33;51.33;;;;;6.65;100.00;99562.97;4957595;28;44888;-81
2022/03/31 05:02:05;;;;;;;;;64.33;47.33;;;;;6.64;100.00;99561.28;4956336;28;44759;-81
2022/03/31 05:04:30;;;;;;;;;65.00;49.67;;;;;6.61;100.00;99569.41;4956257;28;44897;-81
2022/03/31 05:06:56;;;;;;;;;67.33;50.33;;;;;6.62;100.00;99555.28;4956362;28;45198;-81
2022/03/31 05:09:22;;;;;;;;;70.00;53.33;;;;;6.62;100.00;99554.41;4958640;28;45311;-81
2022/03/31 05:11:47;;;;;;;;;62.00;45.00;;;;;6.61;100.00;99552.72;4957422;28;45276;-81
2022/03/31 05:14:12;;;;;;;;;68.00;52.33;;;;;6.60;100.00;99562.44;4957055;28;45239;-81
2022/03/31 05:16:38;;;;;;;;;60.67;46.00;;;;;6.61;100.00;99564.13;4957234;28;45395;-80
2022/03/31 05:19:03;;;;;;;;;73.33;54.67;;;;;6.60;100.00;99561.59;4956799;28;44727;-79
2022/03/31 05:21:29;;;;;;;;;68.00;49.67;;;;;6.59;100.00;99573.13;4957613;28;45056;-82
2022/03/31 05:23:54;;;;;;;;;68.67;52.00;;;;;6.60;100.00;99570.38;4958060;28;44867;-81
2022/03/31 05:26:20;;;;;;;;;58.33;48.33;;;;;6.59;100.00;99584.50;4958470;28;45005;-81
2022/03/31 05:28:45;;;;;;;;;67.33;49.67;;;;;6.59;100.00;99576.59;4960568;28;44821;-81
2022/03/31 05:31:11;;;;;;;;;68.33;52.67;;;;;6.58;100.00;99580.19;4943828;28;44840;-80
2022/03/31 05:33:36;;;;;;;;;63.33;52.00;;;;;6.59;100.00;99578.41;4961323;28;44808;-81
2022/03/31 05:36:02;;;;;;;;;65.67;52.00;;;;;6.58;100.00;99585.47;4997542;28;45292;-81
2022/03/31 05:38:27;;;;;;;;;63.33;49.33;;;;;6.58;100.00;99579.34;4996698;28;45247;-80
2022/03/31 05:40:53;;;;;;;;;61.67;42.67;;;;;6.59;100.00;99586.31;4997167;28;44812;-81
2022/03/31 05:43:18;;;;;;;;;62.33;49.00;;;;;6.57;100.00;99582.91;4998449;28;44780;-80
2022/03/31 05:45:44;;;;;;;;;69.33;52.33;;;;;6.59;100.00;99586.31;4979423;28;45480;-81
2022/03/31 05:48:09;;;;;;;;;69.00;50.00;;;;;6.58;100.00;99590.75;4997427;28;44777;-81
2022/03/31 05:50:35;;;;;;;;;66.67;50.67;;;;;6.57;100.00;99596.09;4998110;28;45167;-81
2022/03/31 05:53:00;;;;;;;;;71.67;55.33;;;;;6.60;100.00;99590.63;4985605;28;45111;-81
2022/03/31 05:55:25;;;;;;;;;64.33;49.33;;;;;6.59;100.00;99591.59;5014521;28;44908;-80
2022/03/31 05:57:51;;;;;;;;;68.00;50.67;;;;;6.55;100.00;99598.88;5015850;28;44816;-81
2022/03/31 06:00:19;;;;;;;;;63.33;50.67;;;;;6.62;100.00;99602.78;5016221;28;45367;-81
2022/03/31 06:02:46;;;;;;;;;72.33;56.67;;;;;6.60;100.00;99612.59;4998434;28;44850;-82
2022/03/31 06:05:13;;;;;;;;;75.00;61.33;;;;;6.65;100.00;99609.63;5016317;28;45543;-81
2022/03/31 06:07:38;;;;;;;;;76.00;56.33;;;;;6.71;100.00;99611.84;5015657;28;44750;-80
2022/03/31 06:10:05;;;;;;;;;75.00;58.25;;;;;6.68;100.00;99622.63;4998581;28;45346;-81
2022/03/31 06:12:31;;;;;;;;;80.00;59.75;;;;;6.67;100.00;99611.22;5016378;28;44747;-81
2022/03/31 06:14:57;;;;;;;;;85.00;67.75;;;;;6.67;100.00;99626.19;5015369;28;45238;-81
2022/03/31 06:17:23;;;;;;;;;75.00;55.67;;;;;6.68;100.00;99620.81;5015673;28;45434;-81
2022/03/31 06:19:49;;;;;;;;;77.00;64.00;;;;;6.72;100.00;99631.16;5016861;28;44838;-83
2022/03/31 06:22:14;;;;;;;;;79.25;60.00;;;;;6.73;100.00;99617.88;5000390;28;45282;-84
2022/03/31 06:24:40;;;;;;;;;69.67;55.00;;;;;6.80;100.00;99629.69;5003968;28;46542;-84
2022/03/31 06:27:07;;;;;;;;;76.00;58.50;;;;;6.82;100.00;99637.53;5019111;28;45202;-83
2022/03/31 06:29:33;;;;;;;;;72.33;56.00;;;;;6.82;100.00;99632.25;5015825;28;44870;-82
2022/03/31 06:31:59;;;;;;;;;84.67;64.67;;;;;6.76;100.00;99630.00;5015747;28;45378;-82
2022/03/31 06:34:24;;;;;;;;;72.33;55.00;;;;;6.78;100.00;99641.31;5015712;28;45899;-82
2022/03/31 06:36:50;;;;;;;;;79.50;65.25;;;;;6.56;100.00;99645.41;5015341;28;45313;-83
2022/03/31 06:39:16;;;;;;;;;80.50;60.50;;;;;6.56;100.00;99647.19;5015763;28;44842;-82
2022/03/31 06:41:45;;;;;;;;;73.50;58.25;;;;;6.43;100.00;99653.31;5015572;28;45343;-83
2022/03/31 06:44:13;;;;;;;;;80.67;62.33;;;;;6.47;100.00;99653.09;5015955;28;45236;-83
2022/03/31 06:46:39;;;;;;;;;68.00;53.00;;;;;6.54;100.00;99643.84;5019510;28;45334;-83
2022/03/31 06:49:05;;;;;;;;;75.75;59.75;;;;;6.52;100.00;99646.56;5020564;28;44821;-83
2022/03/31 06:51:30;;;;;;;;;78.75;66.00;;;;;6.47;100.00;99645.19;5021977;28;45314;-83
2022/03/31 06:53:57;;;;;;;;;81.75;61.25;;;;;6.53;100.00;99644.78;4997865;28;46342;-82
2022/03/31 06:56:27;;;;;;;;;87.50;71.25;;;;;6.58;100.00;99642.69;5000632;28;44663;-83
2022/03/31 06:58:53;;;;;;;;;85.25;65.75;;;;;6.55;100.00;99649.00;4997185;28;45579;-83
2022/03/31 07:01:18;;;;;;;;;79.00;59.50;;;;;6.54;100.00;99636.75;4998358;28;45414;-82
2022/03/31 07:03:43;;;;;;;;;81.25;59.00;;;;;6.58;100.00;99642.69;4998541;28;45196;-81
2022/03/31 07:06:11;;;;;;;;;57.67;47.00;;;;;6.63;100.00;99633.50;4995311;28;45361;-82
2022/03/31 07:08:37;;;;;;;;;77.00;54.50;;;;;6.64;100.00;99621.97;4983006;28;44871;-83
2022/03/31 07:11:03;;;;;;;;;76.75;59.00;;;;;6.72;100.00;99620.59;4982301;28;45225;-83
2022/03/31 07:13:30;;;;;;;;;83.67;59.33;;;;;6.82;100.00;99617.25;4999962;28;45261;-83
2022/03/31 07:15:55;;;;;;;;;77.67;61.33;;;;;6.93;100.00;99614.69;5002527;28;45446;-81
2022/03/31 07:18:21;;;;;;;;;74.00;55.33;;;;;7.06;100.00;99614.69;4985664;28;44823;-83
2022/03/31 07:20:48;;;;;;;;;79.00;58.67;;;;;7.16;100.00;99613.06;5002885;28;44856;-82
2022/03/31 07:23:13;;;;;;;;;77.00;58.67;;;;;7.27;100.00;99608.81;5009471;28;45360;-82
2022/03/31 07:25:39;;;;;;;;;71.67;55.33;;;;;7.41;100.00;99608.69;5002835;28;45324;-81
2022/03/31 07:28:04;;;;;;;;;71.67;55.67;;;;;7.48;100.00;99605.47;5003526;28;44836;-83
2022/03/31 07:30:30;;;;;;;;;73.00;54.67;;;;;7.67;100.00;99610.25;4984489;28;45452;-82
2022/03/31 07:32:58;;;;;;;;;67.67;53.33;;;;;7.80;100.00;99606.72;4999941;28;45339;-82
2022/03/31 07:35:26;;;;;;;;;68.67;50.33;;;;;7.93;100.00;99610.16;4980889;28;45374;-83
2022/03/31 07:37:53;;;;;;;;;61.00;50.00;;;;;7.91;100.00;99610.25;4987537;28;44834;-83
2022/03/31 07:40:20;;;;;;;;;69.67;53.33;;;;;7.81;100.00;99621.63;5002059;28;44812;-82
2022/03/31 07:42:45;;;;;;;;;68.33;51.33;;;;;7.67;100.00;99627.91;4980388;28;45414;-83
2022/03/31 07:45:14;;;;;;;;;64.00;50.00;;;;;7.56;100.00;99626.06;4997914;28;45373;-82
2022/03/31 07:47:41;;;;;;;;;62.33;47.00;;;;;7.55;100.00;99631.47;4980481;28;45441;-83
2022/03/31 07:50:09;;;;;;;;;65.33;52.33;;;;;7.36;100.00;99631.94;4999502;28;45308;-82
2022/03/31 07:52:35;;;;;;;;;71.00;56.00;;;;;7.34;100.00;99634.69;5002670;28;45269;-82
2022/03/31 07:55:01;;;;;;;;;64.00;49.33;;;;;7.32;100.00;99631.31;5016033;28;45460;-82
2022/03/31 07:57:26;;;;;;;;;71.00;53.33;;;;;7.37;100.00;99626.53;5019695;28;45254;-83
2022/03/31 07:59:52;;;;;;;;;67.67;52.00;;;;;7.37;100.00;99626.53;5020864;28;44828;-82
2022/03/31 08:02:17;;;;;;;;;66.33;51.00;;;;;7.31;100.00;99639.34;5000866;28;46988;-82
2022/03/31 08:04:43;;;;;;;;;65.00;50.33;;;;;7.32;100.00;99636.59;5003470;28;44821;-83
2022/03/31 08:07:08;;;;;;;;;67.00;49.00;;;;;7.25;100.00;99635.31;5006989;28;44803;-82
2022/03/31 08:09:34;;;;;;;;;78.00;58.00;;;;;7.24;100.00;99640.72;5003780;28;44952;-82
2022/03/31 08:11:59;;;;;;;;;72.33;53.67;;;;;7.22;100.00;99639.03;5016683;28;45326;-81
2022/03/31 08:14:25;;;;;;;;;67.67;54.33;;;;;7.11;100.00;99648.69;5016798;28;45391;-82
2022/03/31 08:16:51;;;;;;;;;71.67;50.67;;;;;7.06;100.00;99654.28;5009886;28;44771;-82
2022/03/31 08:19:18;;;;;;;;;68.67;50.67;;;;;6.88;100.00;99659.03;4998802;28;45465;-82
2022/03/31 08:21:48;;;;;;;;;51.00;41.33;;;;;6.84;100.00;99660.19;4997057;28;46680;-82
2022/03/31 08:24:15;;;;;;;;;69.00;54.67;;;;;6.86;100.00;99666.22;4998965;28;44858;-82
2022/03/31 08:26:41;;;;;;;;;63.00;52.00;;;;;6.76;100.00;99670.44;4982686;28;45315;-82
2022/03/31 08:29:08;;;;;;;;;77.33;56.00;;;;;6.55;100.00;99679.81;4981462;28;45462;-82
2022/03/31 08:31:34;;;;;;;;;61.67;46.33;;;;;6.48;100.00;99691.72;5012246;28;45168;-82
2022/03/31 08:34:00;;;;;;;;;44.33;36.67;;;;;5.95;100.00;99735.63;5022891;28;44833;-83
2022/03/31 08:36:26;;;;;;;;;36.67;33.67;;;;;5.80;100.00;99711.06;5000981;28;45406;-84
2022/03/31 08:38:52;;;;;;;;;38.00;35.00;;;;;5.62;100.00;99715.72;5017785;28;45505;-83
2022/03/31 08:41:26;;;;;;;;;32.67;29.00;;;;;5.49;100.00;99728.81;4999008;28;46689;-84
2022/03/31 08:43:54;;;;;;;;;22.33;18.00;;;;;5.10;100.00;99729.47;5013094;28;45435;-84
2022/03/31 08:46:21;;;;;;;;;24.00;20.00;;;;;4.92;100.00;99739.31;4998664;28;44822;-84
2022/03/31 08:48:48;;;;;;;;;44.67;35.00;;;;;4.76;100.00;99741.16;4999025;28;44883;-83
2022/03/31 08:51:13;;;;;;;;;20.67;17.33;;;;;4.57;100.00;99744.88;4999799;28;45298;-84
2022/03/31 08:53:39;;;;;;;;;31.00;30.00;;;;;4.52;100.00;99753.97;5004917;28;45319;-82
2022/03/31 08:56:05;;;;;;;;;35.00;28.67;;;;;4.54;100.00;99760.81;4990975;28;44779;-83
2022/03/31 08:58:31;;;;;;;;;33.00;29.33;;;;;4.53;100.00;99774.91;5010915;28;44803;-82
2022/03/31 09:00:57;;;;;;;;;26.67;19.67;;;;;4.46;100.00;99752.53;5009419;28;45002;-84
2022/03/31 09:03:33;;;;;;;;;26.00;21.67;;;;;4.46;100.00;99773.56;5011313;28;44870;-81
2022/03/31 09:05:59;;;;;;;;;10.67;10.67;;;;;4.44;100.00;99780.69;4998183;28;44729;-84
2022/03/31 09:08:24;;;;;;;;;20.00;16.00;;;;;4.32;100.00;99803.28;5010052;28;44916;-83
2022/03/31 09:10:53;;;;;;;;;10.67;10.67;;;;;4.15;100.00;99787.59;4990316;28;45526;-82
2022/03/31 09:13:23;;;;;;;;;23.33;21.00;;;;;4.09;100.00;99796.66;4998016;28;45457;-84
2022/03/31 09:16:12;;;;;;;;;15.33;14.00;;;;;3.97;100.00;99801.78;5010862;28;45223;-84
2022/03/31 09:18:39;;;;;;;;;19.67;17.33;;;;;3.81;100.00;99804.34;4981101;28;44809;-83
2022/03/31 09:21:10;;;;;;;;;18.00;18.00;;;;;3.67;100.00;99806.88;4997752;28;45555;-85
2022/03/31 09:24:03;;;;;;;;;;;;;;;;;;;;;
2022/03/31 09:26:32;;;;;;;;;21.33;21.33;;;;;3.52;100.00;99830.38;5000564;28;68010;-84
2022/03/31 09:29:12;;;;;;;;;9.67;9.67;;;;;3.39;100.00;99831.13;5007797;28;44813;-84
2022/03/31 09:32:07;;;;;;;;;19.00;15.67;;;;;3.42;100.00;99823.94;4984532;28;45209;-83
2022/03/31 09:34:49;;;;;;;;;16.33;10.67;;;;;3.36;100.00;99834.75;4989686;28;44898;-83
2022/03/31 09:37:15;;;;;;;;;21.00;18.00;;;;;3.35;100.00;99838.31;4977126;28;44820;-84
2022/03/31 09:39:42;;;;;;;;;11.67;11.67;;;;;3.31;100.00;99842.03;5009490;28;45417;-84
2022/03/31 09:42:14;;;;;;;;;18.00;18.00;;;;;3.32;100.00;99857.69;5001620;28;45432;-83
2022/03/31 09:44:42;;;;;;;;;20.33;16.33;;;;;3.37;100.00;99846.09;5002505;28;44827;-84
2022/03/31 09:47:10;;;;;;;;;16.67;16.67;;;;;3.40;100.00;99856.47;5025224;28;44689;-83
2022/03/31 09:49:37;;;;;;;;;13.67;13.33;;;;;3.45;100.00;99862.31;5002270;28;44806;-82
2022/03/31 09:52:07;;;;;;;;;21.33;17.33;;;;;3.53;100.00;99858.38;5019928;28;45189;-82
2022/03/31 09:54:33;;;;;;;;;16.33;14.00;;;;;3.51;100.00;99856.75;5006776;28;44726;-83
2022/03/31 09:57:01;;;;;;;;;13.00;10.33;;;;;3.51;100.00;99869.88;4992131;28;44869;-82
2022/03/31 09:59:44;;;;;;;;;14.00;13.67;;;;;3.55;100.00;99860.91;5001436;28;44926;-84
2022/03/31 10:02:10;;;;;;;;;18.33;13.00;;;;;3.60;100.00;99851.84;5015616;28;45178;-82
2022/03/31 10:04:35;;;;;;;;;18.00;16.67;;;;;3.68;100.00;99859.34;4985086;28;45817;-83
2022/03/31 10:07:03;;;;;;;;;14.67;9.33;;;;;3.70;100.00;99844.34;5002112;28;44794;-83
2022/03/31 10:09:31;;;;;;;;;13.00;12.00;;;;;3.75;100.00;99857.22;4998253;28;44987;-83
2022/03/31 10:12:08;;;;;;;;;13.33;13.33;;;;;3.70;100.00;99840.88;5007860;28;45188;-84
2022/03/31 10:15:00;;;;;;;;;16.00;13.67;;;;;3.65;100.00;99840.25;4998092;28;44751;-83
2022/03/31 10:17:27;;;;;;;;;13.33;9.33;;;;;3.70;100.00;99872.38;5014667;28;44782;-84
2022/03/31 10:19:54;;;;;;;;;17.67;14.00;;;;;3.76;100.00;99859.75;5021263;28;44850;-85
2022/03/31 10:25:14;;;;;;;;;14.00;13.00;;;;;3.80;100.00;99870.97;5015444;28;44921;-84
2022/03/31 10:27:45;;;;;;;;;14.33;14.33;;;;;3.83;100.00;99879.53;5005689;28;44801;-85
2022/03/31 10:30:25;;;;;;;;;11.67;11.67;;;;;3.80;100.00;99865.72;5012830;28;44762;-85
2022/03/31 10:33:04;;;;;;;;;20.33;15.67;;;;;3.82;100.00;99879.59;4999207;28;45225;-83
2022/03/31 10:35:33;;;;;;;;;17.67;17.67;;;;;3.93;100.00;99872.03;5003187;28;44787;-84
2022/03/31 10:38:14;;;;;;;;;10.00;10.00;;;;;4.05;100.00;99873.13;5008757;28;44772;-84
2022/03/31 10:40:45;;;;;;;;;14.33;13.67;;;;;4.09;100.00;99867.63;5021708;28;44845;-86
2022/03/31 10:43:22;;;;;;;;;14.33;13.00;;;;;4.08;100.00;99851.94;5000393;28;45403;-85
2022/03/31 10:45:48;;;;;;;;;9.33;8.67;;;;;4.12;100.00;99879.75;5003547;28;45341;-85
2022/03/31 10:48:27;;;;;;;;;11.00;10.00;;;;;4.13;100.00;99858.66;5021832;28;44826;-83
2022/03/31 10:51:06;;;;;;;;;10.33;10.33;;;;;4.21;100.00;99845.09;5010656;28;44637;-84
2022/03/31 10:53:34;;;;;;;;;15.00;11.67;;;;;4.36;100.00;99883.69;5014227;28;45082;-85
2022/03/31 10:56:02;;;;;;;;;3.33;3.33;;;;;4.38;100.00;99850.25;5003702;28;45264;-86
2022/03/31 10:58:29;;;;;;;;;8.00;4.00;;;;;4.47;100.00;99838.38;5001919;28;45453;-82
2022/03/31 11:01:05;;;;;;;;;11.00;10.00;;;;;4.59;100.00;99823.66;4999894;28;44823;-85
2022/03/31 11:03:31;;;;;;;;;9.00;7.33;;;;;4.70;100.00;99837.09;5019434;28;45151;-83
2022/03/31 11:06:10;;;;;;;;;4.00;4.00;;;;;4.76;100.00;99849.88;5003647;28;44997;-83
2022/03/31 11:08:46;;;;;;;;;2.00;2.00;;;;;4.81;100.00;99846.97;5010518;28;44700;-85
2022/03/31 11:11:20;;;;;;;;;7.00;7.00;;;;;4.83;100.00;99834.56;5015562;28;45449;-85
2022/03/31 11:13:46;;;;;;;;;7.33;5.67;;;;;4.79;100.00;99835.72;5003530;28;45906;-85
2022/03/31 11:16:14;;;;;;;;;5.33;5.33;;;;;4.65;100.00;99857.53;5004847;28;45250;-85
2022/03/31 11:18:39;;;;;;;;;10.33;8.33;;;;;4.73;100.00;99838.66;5022188;28;44711;-85
2022/03/31 11:21:04;;;;;;;;;9.67;6.33;;;;;4.77;100.00;99846.31;5023166;28;44927;-84
2022/03/31 11:23:31;;;;;;;;;8.00;4.00;;;;;4.72;100.00;99844.88;5024195;28;45109;-83
2022/03/31 11:25:58;;;;;;;;;5.33;5.33;;;;;4.77;100.00;99864.72;5006244;28;44825;-83